sensor_id;sensor_type;location;lat;lon;timestamp;pressure;altitude;pressure_sealevel;temperature;humidity
3260;BME280;22469;48.150;14.004;2022-08-21T00:00:27;97997.00;;;21.15;79.20
3260;BME280;22469;48.150;14.004;2022-08-21T00:03:00;97996.41;;;21.11;79.27
3260;BME280;22469;48.150;14.004;2022-08-21T00:05:32;97994.31;;;21.16;79.61
3260;BME280;22469;48.150;14.004;2022-08-21T00:08:04;97989.69;;;21.20;79.28
3260;BME280;22469;48.150;14.004;2022-08-21T00:10:32;97990.59;;;21.08;79.04
3260;BME280;22469;48.150;14.004;2022-08-21T00:13:04;97998.44;;;21.19;79.56
3260;BME280;22469;48.150;14.004;2022-08-21T00:15:34;97987.66;;;21.23;79.21
3260;BME280;22469;48.150;14.004;2022-08-21T00:18:04;97995.25;;;21.26;79.02
3260;BME280;22469;48.150;14.004;2022-08-21T00:20:33;97994.19;;;21.29;78.86
3260;BME280;22469;48.150;14.004;2022-08-21T00:23:01;97983.63;;;21.30;78.33
3260;BME280;22469;48.150;14.004;2022-08-21T00:25:29;97997.25;;;21.23;78.80
3260;BME280;22469;48.150;14.004;2022-08-21T00:27:57;97985.75;;;21.25;78.40
3260;BME280;22469;48.150;14.004;2022-08-21T00:30:26;97985.88;;;21.24;78.53
3260;BME280;22469;48.150;14.004;2022-08-21T00:32:55;97983.03;;;21.27;78.35
3260;BME280;22469;48.150;14.004;2022-08-21T00:35:32;97980.44;;;21.27;79.09
3260;BME280;22469;48.150;14.004;2022-08-21T00:38:01;97983.50;;;21.32;78.10
3260;BME280;22469;48.150;14.004;2022-08-21T00:40:34;97988.41;;;21.37;78.46
3260;BME280;22469;48.150;14.004;2022-08-21T00:43:18;97982.84;;;21.41;78.31
3260;BME280;22469;48.150;14.004;2022-08-21T00:45:49;97979.41;;;21.41;78.34
3260;BME280;22469;48.150;14.004;2022-08-21T00:48:16;97971.09;;;21.47;78.11
3260;BME280;22469;48.150;14.004;2022-08-21T00:50:50;97980.22;;;21.52;77.93
3260;BME280;22469;48.150;14.004;2022-08-21T00:53:22;97977.53;;;21.54;78.11
3260;BME280;22469;48.150;14.004;2022-08-21T00:55:50;97985.44;;;21.52;78.10
3260;BME280;22469;48.150;14.004;2022-08-21T00:58:22;97983.31;;;21.46;77.81
3260;BME280;22469;48.150;14.004;2022-08-21T01:00:51;97980.00;;;21.44;78.12
3260;BME280;22469;48.150;14.004;2022-08-21T01:03:21;97976.56;;;21.44;78.23
3260;BME280;22469;48.150;14.004;2022-08-21T01:05:50;97967.53;;;21.37;78.42
3260;BME280;22469;48.150;14.004;2022-08-21T01:08:19;97975.81;;;21.30;78.41
3260;BME280;22469;48.150;14.004;2022-08-21T01:10:48;97965.25;;;21.32;78.71
3260;BME280;22469;48.150;14.004;2022-08-21T01:13:20;97970.25;;;21.35;78.72
3260;BME280;22469;48.150;14.004;2022-08-21T01:15:53;97975.59;;;21.34;78.57
3260;BME280;22469;48.150;14.004;2022-08-21T01:18:23;97971.16;;;21.23;78.61
3260;BME280;22469;48.150;14.004;2022-08-21T01:23:31;97966.78;;;21.23;79.45
3260;BME280;22469;48.150;14.004;2022-08-21T01:25:58;97966.56;;;21.26;78.98
3260;BME280;22469;48.150;14.004;2022-08-21T01:28:26;97965.47;;;21.29;79.22
3260;BME280;22469;48.150;14.004;2022-08-21T01:30:57;97960.97;;;21.31;78.90
3260;BME280;22469;48.150;14.004;2022-08-21T01:33:25;97959.81;;;21.35;79.05
3260;BME280;22469;48.150;14.004;2022-08-21T01:35:52;97958.53;;;21.41;78.33
3260;BME280;22469;48.150;14.004;2022-08-21T01:38:19;97964.34;;;21.44;78.47
3260;BME280;22469;48.150;14.004;2022-08-21T01:40:47;97959.00;;;21.46;78.51
3260;BME280;22469;48.150;14.004;2022-08-21T01:43:14;97957.81;;;21.50;78.60
3260;BME280;22469;48.150;14.004;2022-08-21T01:45:51;97953.16;;;21.53;78.49
3260;BME280;22469;48.150;14.004;2022-08-21T01:48:18;97949.03;;;21.51;78.12
3260;BME280;22469;48.150;14.004;2022-08-21T01:50:45;97951.66;;;21.51;78.45
3260;BME280;22469;48.150;14.004;2022-08-21T01:53:12;97943.56;;;21.43;78.68
3260;BME280;22469;48.150;14.004;2022-08-21T01:55:43;97942.16;;;21.39;78.92
3260;BME280;22469;48.150;14.004;2022-08-21T01:58:10;97930.88;;;21.38;79.00
3260;BME280;22469;48.150;14.004;2022-08-21T02:00:37;97940.56;;;21.25;78.87
3260;BME280;22469;48.150;14.004;2022-08-21T02:03:05;97934.38;;;20.92;80.83
3260;BME280;22469;48.150;14.004;2022-08-21T02:05:32;97928.06;;;20.83;81.57
3260;BME280;22469;48.150;14.004;2022-08-21T02:08:00;97923.59;;;20.97;80.85
3260;BME280;22469;48.150;14.004;2022-08-21T02:10:30;97916.47;;;20.99;81.22
3260;BME280;22469;48.150;14.004;2022-08-21T02:12:59;97918.25;;;20.98;80.76
3260;BME280;22469;48.150;14.004;2022-08-21T02:15:28;97919.94;;;20.99;81.11
3260;BME280;22469;48.150;14.004;2022-08-21T02:17:59;97922.78;;;21.08;80.88
3260;BME280;22469;48.150;14.004;2022-08-21T02:20:32;97921.81;;;21.09;80.67
3260;BME280;22469;48.150;14.004;2022-08-21T02:23:03;97916.72;;;21.18;80.40
3260;BME280;22469;48.150;14.004;2022-08-21T02:25:32;97916.38;;;21.23;79.80
3260;BME280;22469;48.150;14.004;2022-08-21T02:28:06;97907.16;;;21.30;79.43
3260;BME280;22469;48.150;14.004;2022-08-21T02:30:42;97917.59;;;21.30;79.44
3260;BME280;22469;48.150;14.004;2022-08-21T02:33:12;97914.03;;;21.20;79.39
3260;BME280;22469;48.150;14.004;2022-08-21T02:35:42;97916.38;;;21.23;79.79
3260;BME280;22469;48.150;14.004;2022-08-21T02:38:17;97912.59;;;21.27;79.75
3260;BME280;22469;48.150;14.004;2022-08-21T02:40:49;97923.03;;;21.27;79.73
3260;BME280;22469;48.150;14.004;2022-08-21T02:43:19;97919.34;;;21.18;79.91
3260;BME280;22469;48.150;14.004;2022-08-21T02:45:49;97908.09;;;21.18;80.19
3260;BME280;22469;48.150;14.004;2022-08-21T02:48:19;97914.94;;;21.08;80.27
3260;BME280;22469;48.150;14.004;2022-08-21T02:50:52;97913.91;;;21.10;80.39
3260;BME280;22469;48.150;14.004;2022-08-21T02:53:22;97910.19;;;21.13;80.43
3260;BME280;22469;48.150;14.004;2022-08-21T02:55:51;97910.56;;;21.08;80.17
3260;BME280;22469;48.150;14.004;2022-08-21T02:58:25;97916.28;;;21.13;80.53
3260;BME280;22469;48.150;14.004;2022-08-21T03:00:54;97915.41;;;21.01;81.16
3260;BME280;22469;48.150;14.004;2022-08-21T03:03:22;97911.03;;;21.02;80.58
3260;BME280;22469;48.150;14.004;2022-08-21T03:05:49;97905.47;;;21.06;80.94
3260;BME280;22469;48.150;14.004;2022-08-21T03:08:18;97913.28;;;21.18;80.18
3260;BME280;22469;48.150;14.004;2022-08-21T03:10:50;97912.13;;;21.11;80.88
3260;BME280;22469;48.150;14.004;2022-08-21T03:13:19;97909.13;;;21.15;80.35
3260;BME280;22469;48.150;14.004;2022-08-21T03:15:50;97907.59;;;21.13;80.07
3260;BME280;22469;48.150;14.004;2022-08-21T03:18:18;97900.97;;;21.20;79.85
3260;BME280;22469;48.150;14.004;2022-08-21T03:20:46;97903.91;;;21.15;80.37
3260;BME280;22469;48.150;14.004;2022-08-21T03:23:15;97899.88;;;21.22;79.95
3260;BME280;22469;48.150;14.004;2022-08-21T03:25:46;97900.97;;;21.20;80.00
3260;BME280;22469;48.150;14.004;2022-08-21T03:28:18;97899.56;;;21.27;79.90
3260;BME280;22469;48.150;14.004;2022-08-21T03:30:49;97897.03;;;21.25;80.11
3260;BME280;22469;48.150;14.004;2022-08-21T03:33:18;97904.41;;;21.32;79.55
3260;BME280;22469;48.150;14.004;2022-08-21T03:36:01;97895.56;;;21.34;79.38
3260;BME280;22469;48.150;14.004;2022-08-21T03:38:34;97894.34;;;21.38;79.26
3260;BME280;22469;48.150;14.004;2022-08-21T03:41:04;97895.06;;;21.40;79.00
3260;BME280;22469;48.150;14.004;2022-08-21T03:43:34;97894.81;;;21.43;79.21
3260;BME280;22469;48.150;14.004;2022-08-21T03:46:04;97894.94;;;21.42;78.98
3260;BME280;22469;48.150;14.004;2022-08-21T03:48:33;97904.06;;;21.36;78.79
3260;BME280;22469;48.150;14.004;2022-08-21T03:51:01;97895.19;;;21.39;78.89
3260;BME280;22469;48.150;14.004;2022-08-21T03:53:28;97901.13;;;21.41;79.18
3260;BME280;22469;48.150;14.004;2022-08-21T03:55:56;97906.44;;;21.28;79.63
3260;BME280;22469;48.150;14.004;2022-08-21T03:58:26;97911.28;;;21.21;79.40
3260;BME280;22469;48.150;14.004;2022-08-21T04:00:57;97912.72;;;21.03;80.48
3260;BME280;22469;48.150;14.004;2022-08-21T04:03:27;97915.31;;;21.14;80.10
3260;BME280;22469;48.150;14.004;2022-08-21T04:05:55;97914.13;;;21.18;80.40
3260;BME280;22469;48.150;14.004;2022-08-21T04:08:22;97915.53;;;21.11;80.25
3260;BME280;22469;48.150;14.004;2022-08-21T04:10:51;97923.25;;;21.13;80.21
3260;BME280;22469;48.150;14.004;2022-08-21T04:13:20;97928.59;;;21.11;80.22
3260;BME280;22469;48.150;14.004;2022-08-21T04:15:48;97930.59;;;21.19;80.19
3260;BME280;22469;48.150;14.004;2022-08-21T04:18:16;97935.13;;;21.28;79.48
3260;BME280;22469;48.150;14.004;2022-08-21T04:20:45;97925.78;;;21.37;79.30
3260;BME280;22469;48.150;14.004;2022-08-21T04:23:20;97931.34;;;21.43;79.23
3260;BME280;22469;48.150;14.004;2022-08-21T04:25:51;97931.00;;;21.48;78.85
3260;BME280;22469;48.150;14.004;2022-08-21T04:28:20;97938.47;;;21.52;78.98
3260;BME280;22469;48.150;14.004;2022-08-21T04:30:50;97936.81;;;21.51;78.68
3260;BME280;22469;48.150;14.004;2022-08-21T04:33:19;97936.09;;;21.49;78.83
3260;BME280;22469;48.150;14.004;2022-08-21T04:35:48;97949.03;;;21.51;79.07
3260;BME280;22469;48.150;14.004;2022-08-21T04:38:17;97945.25;;;21.55;78.79
3260;BME280;22469;48.150;14.004;2022-08-21T04:40:46;97949.25;;;21.59;79.09
3260;BME280;22469;48.150;14.004;2022-08-21T04:43:15;97947.97;;;21.65;79.08
3260;BME280;22469;48.150;14.004;2022-08-21T04:45:45;97954.59;;;21.69;79.03
3260;BME280;22469;48.150;14.004;2022-08-21T04:48:16;97956.03;;;21.73;78.33
3260;BME280;22469;48.150;14.004;2022-08-21T04:51:05;97952.94;;;21.79;78.47
3260;BME280;22469;48.150;14.004;2022-08-21T04:53:44;97954.72;;;21.79;78.45
3260;BME280;22469;48.150;14.004;2022-08-21T04:56:31;97956.25;;;21.81;78.44
3260;BME280;22469;48.150;14.004;2022-08-21T04:59:05;97961.22;;;21.84;78.54
3260;BME280;22469;48.150;14.004;2022-08-21T05:01:35;97960.97;;;21.87;78.05
3260;BME280;22469;48.150;14.004;2022-08-21T05:04:05;97971.91;;;21.92;78.09
3260;BME280;22469;48.150;14.004;2022-08-21T05:06:37;97963.69;;;21.97;78.34
3260;BME280;22469;48.150;14.004;2022-08-21T05:09:09;97972.13;;;22.00;77.81
3260;BME280;22469;48.150;14.004;2022-08-21T05:11:40;97972.25;;;21.99;77.65
3260;BME280;22469;48.150;14.004;2022-08-21T05:14:11;97973.09;;;21.99;78.14
3260;BME280;22469;48.150;14.004;2022-08-21T05:16:39;97971.44;;;21.98;78.05
3260;BME280;22469;48.150;14.004;2022-08-21T05:19:08;97972.03;;;22.02;78.08
3260;BME280;22469;48.150;14.004;2022-08-21T05:21:40;97970.81;;;22.06;78.04
3260;BME280;22469;48.150;14.004;2022-08-21T05:24:10;97972.47;;;22.07;77.84
3260;BME280;22469;48.150;14.004;2022-08-21T05:26:38;97974.84;;;22.10;77.66
3260;BME280;22469;48.150;14.004;2022-08-21T05:29:15;97974.84;;;22.10;78.18
3260;BME280;22469;48.150;14.004;2022-08-21T05:31:45;97967.97;;;22.09;77.54
3260;BME280;22469;48.150;14.004;2022-08-21T05:34:17;97969.47;;;22.12;77.97
3260;BME280;22469;48.150;14.004;2022-08-21T05:36:45;97974.13;;;22.08;77.70
3260;BME280;22469;48.150;14.004;2022-08-21T05:39:13;97975.66;;;22.11;77.73
3260;BME280;22469;48.150;14.004;2022-08-21T05:41:41;97975.56;;;22.12;78.23
3260;BME280;22469;48.150;14.004;2022-08-21T05:44:08;97983.19;;;22.15;77.89
3260;BME280;22469;48.150;14.004;2022-08-21T05:46:35;97985.66;;;22.17;77.80
3260;BME280;22469;48.150;14.004;2022-08-21T05:49:03;97984.69;;;22.18;77.57
3260;BME280;22469;48.150;14.004;2022-08-21T05:51:30;97981.84;;;22.21;77.51
3260;BME280;22469;48.150;14.004;2022-08-21T05:53:57;97980.06;;;22.21;77.51
3260;BME280;22469;48.150;14.004;2022-08-21T05:56:25;97981.75;;;22.22;77.95
3260;BME280;22469;48.150;14.004;2022-08-21T05:58:52;97983.41;;;22.23;77.52
3260;BME280;22469;48.150;14.004;2022-08-21T06:01:19;97984.09;;;22.26;77.87
3260;BME280;22469;48.150;14.004;2022-08-21T06:03:46;97985.63;;;22.28;77.98
3260;BME280;22469;48.150;14.004;2022-08-21T06:06:13;97977.69;;;22.30;77.60
3260;BME280;22469;48.150;14.004;2022-08-21T06:08:40;97976.84;;;22.29;78.04
3260;BME280;22469;48.150;14.004;2022-08-21T06:11:08;97985.75;;;22.27;78.02
3260;BME280;22469;48.150;14.004;2022-08-21T06:13:36;97979.47;;;22.29;77.73
3260;BME280;22469;48.150;14.004;2022-08-21T06:16:07;97980.97;;;22.32;77.91
3260;BME280;22469;48.150;14.004;2022-08-21T06:18:36;97977.44;;;22.33;78.04
3260;BME280;22469;48.150;14.004;2022-08-21T06:21:04;97977.16;;;22.36;77.92
3260;BME280;22469;48.150;14.004;2022-08-21T06:23:33;97976.47;;;22.34;77.89
3260;BME280;22469;48.150;14.004;2022-08-21T06:26:02;97978.38;;;22.32;77.88
3260;BME280;22469;48.150;14.004;2022-08-21T06:28:32;97989.59;;;22.22;77.86
3260;BME280;22469;48.150;14.004;2022-08-21T06:31:00;97985.44;;;22.20;77.90
3260;BME280;22469;48.150;14.004;2022-08-21T06:33:27;97987.66;;;22.24;78.06
3260;BME280;22469;48.150;14.004;2022-08-21T06:35:58;97994.19;;;22.30;78.09
3260;BME280;22469;48.150;14.004;2022-08-21T06:38:25;97983.50;;;22.22;78.35
3260;BME280;22469;48.150;14.004;2022-08-21T06:40:52;97990.53;;;22.10;78.62
3260;BME280;22469;48.150;14.004;2022-08-21T06:43:19;97987.31;;;22.07;79.32
3260;BME280;22469;48.150;14.004;2022-08-21T06:45:46;97990.31;;;22.02;79.14
3260;BME280;22469;48.150;14.004;2022-08-21T06:48:13;97990.81;;;21.85;79.63
3260;BME280;22469;48.150;14.004;2022-08-21T06:50:45;97988.44;;;21.82;80.09
3260;BME280;22469;48.150;14.004;2022-08-21T06:53:14;97990.44;;;21.78;79.98
3260;BME280;22469;48.150;14.004;2022-08-21T06:55:45;97989.50;;;21.79;80.45
3260;BME280;22469;48.150;14.004;2022-08-21T06:58:13;97986.88;;;21.57;81.68
3260;BME280;22469;48.150;14.004;2022-08-21T07:00:42;97995.41;;;21.81;80.67
3260;BME280;22469;48.150;14.004;2022-08-21T07:03:25;97987.94;;;21.88;80.23
3260;BME280;22469;48.150;14.004;2022-08-21T07:05:55;98001.22;;;21.73;80.87
3260;BME280;22469;48.150;14.004;2022-08-21T07:08:25;97994.97;;;21.65;80.70
3260;BME280;22469;48.150;14.004;2022-08-21T07:10:57;98001.59;;;21.46;81.61
3260;BME280;22469;48.150;14.004;2022-08-21T07:13:26;97996.50;;;21.45;81.92
3260;BME280;22469;48.150;14.004;2022-08-21T07:15:54;97998.84;;;21.37;82.73
3260;BME280;22469;48.150;14.004;2022-08-21T07:18:27;98001.44;;;21.37;82.30
3260;BME280;22469;48.150;14.004;2022-08-21T07:20:54;98005.63;;;21.62;81.33
3260;BME280;22469;48.150;14.004;2022-08-21T07:23:28;97995.06;;;21.52;82.53
3260;BME280;22469;48.150;14.004;2022-08-21T07:25:56;97996.59;;;21.43;82.35
3260;BME280;22469;48.150;14.004;2022-08-21T07:28:23;97995.66;;;21.44;83.41
3260;BME280;22469;48.150;14.004;2022-08-21T07:30:52;97997.81;;;21.50;83.11
3260;BME280;22469;48.150;14.004;2022-08-21T07:33:21;97997.69;;;21.74;81.99
3260;BME280;22469;48.150;14.004;2022-08-21T07:35:48;97997.19;;;21.47;83.28
3260;BME280;22469;48.150;14.004;2022-08-21T07:38:15;98001.00;;;21.76;81.75
3260;BME280;22469;48.150;14.004;2022-08-21T07:40:42;97992.09;;;21.90;81.46
3260;BME280;22469;48.150;14.004;2022-08-21T07:43:10;97991.81;;;22.05;80.96
3260;BME280;22469;48.150;14.004;2022-08-21T07:45:37;98002.38;;;22.14;80.56
3260;BME280;22469;48.150;14.004;2022-08-21T07:48:05;97991.97;;;21.81;81.51
3260;BME280;22469;48.150;14.004;2022-08-21T07:50:32;97987.94;;;21.76;82.10
3260;BME280;22469;48.150;14.004;2022-08-21T07:52:59;97991.13;;;22.03;81.27
3260;BME280;22469;48.150;14.004;2022-08-21T07:55:26;97991.03;;;22.15;80.59
3260;BME280;22469;48.150;14.004;2022-08-21T07:57:53;97988.88;;;22.20;80.54
3260;BME280;22469;48.150;14.004;2022-08-21T08:00:23;97984.56;;;22.08;81.54
3260;BME280;22469;48.150;14.004;2022-08-21T08:02:52;97983.16;;;22.27;81.18
3260;BME280;22469;48.150;14.004;2022-08-21T08:05:24;97981.75;;;22.22;81.73
3260;BME280;22469;48.150;14.004;2022-08-21T08:07:53;97983.97;;;22.05;82.25
3260;BME280;22469;48.150;14.004;2022-08-21T08:10:22;97983.41;;;22.23;81.47
3260;BME280;22469;48.150;14.004;2022-08-21T08:12:51;97975.75;;;22.32;80.96
3260;BME280;22469;48.150;14.004;2022-08-21T08:15:25;97976.47;;;22.34;80.94
3260;BME280;22469;48.150;14.004;2022-08-21T08:17:54;97986.84;;;22.01;81.36
3260;BME280;22469;48.150;14.004;2022-08-21T08:20:24;97981.13;;;22.08;81.00
3260;BME280;22469;48.150;14.004;2022-08-21T08:22:54;97976.13;;;22.27;80.40
3260;BME280;22469;48.150;14.004;2022-08-21T08:25:23;97982.69;;;22.21;79.86
3260;BME280;22469;48.150;14.004;2022-08-21T08:27:52;97978.66;;;22.17;79.93
3260;BME280;22469;48.150;14.004;2022-08-21T08:30:20;97982.69;;;22.21;79.76
3260;BME280;22469;48.150;14.004;2022-08-21T08:32:48;97979.63;;;22.16;80.63
3260;BME280;22469;48.150;14.004;2022-08-21T08:35:16;97976.47;;;22.34;79.76
3260;BME280;22469;48.150;14.004;2022-08-21T08:37:49;97976.09;;;22.38;79.46
3260;BME280;22469;48.150;14.004;2022-08-21T08:42:55;97977.53;;;22.31;79.72
3260;BME280;22469;48.150;14.004;2022-08-21T08:45:23;97982.03;;;22.40;79.33
3260;BME280;22469;48.150;14.004;2022-08-21T08:47:57;97981.31;;;22.50;78.87
3260;BME280;22469;48.150;14.004;2022-08-21T08:53:07;97984.38;;;22.55;78.93
3260;BME280;22469;48.150;14.004;2022-08-21T08:55:42;97985.41;;;22.63;78.82
3260;BME280;22469;48.150;14.004;2022-08-21T08:58:22;97983.16;;;22.59;78.57
3260;BME280;22469;48.150;14.004;2022-08-21T09:01:01;97986.34;;;22.62;78.67
3260;BME280;22469;48.150;14.004;2022-08-21T09:03:33;97987.44;;;22.60;78.40
3260;BME280;22469;48.150;14.004;2022-08-21T09:06:42;97987.06;;;22.64;77.80
3260;BME280;22469;48.150;14.004;2022-08-21T09:09:42;97988.19;;;22.51;78.12
3260;BME280;22469;48.150;14.004;2022-08-21T09:12:31;97988.03;;;22.63;78.36
3260;BME280;22469;48.150;14.004;2022-08-21T09:15:15;97989.28;;;22.69;78.44
3260;BME280;22469;48.150;14.004;2022-08-21T09:18:35;97987.72;;;22.78;78.31
3260;BME280;22469;48.150;14.004;2022-08-21T09:26:54;97982.91;;;22.94;78.83
3260;BME280;22469;48.150;14.004;2022-08-21T09:29:30;97978.38;;;22.96;78.24
3260;BME280;22469;48.150;14.004;2022-08-21T09:32:00;97986.78;;;23.00;78.44
3260;BME280;22469;48.150;14.004;2022-08-21T09:34:29;97989.03;;;23.04;78.33
3260;BME280;22469;48.150;14.004;2022-08-21T09:36:57;97991.34;;;22.98;77.89
3260;BME280;22469;48.150;14.004;2022-08-21T09:39:32;97991.66;;;23.04;77.87
3260;BME280;22469;48.150;14.004;2022-08-21T09:42:08;97991.53;;;23.06;78.02
3260;BME280;22469;48.150;14.004;2022-08-21T09:44:39;97990.44;;;23.08;77.90
3260;BME280;22469;48.150;14.004;2022-08-21T09:47:11;97985.22;;;23.08;77.53
3260;BME280;22469;48.150;14.004;2022-08-21T09:49:42;97991.13;;;23.10;78.09
3260;BME280;22469;48.150;14.004;2022-08-21T09:52:18;97984.81;;;23.13;77.90
3260;BME280;22469;48.150;14.004;2022-08-21T09:54:52;97982.44;;;23.10;77.84
3260;BME280;22469;48.150;14.004;2022-08-21T09:57:30;97981.13;;;23.15;77.78
3260;BME280;22469;48.150;14.004;2022-08-21T10:00:25;97975.16;;;23.13;77.88
3260;BME280;22469;48.150;14.004;2022-08-21T10:03:16;97982.91;;;23.15;77.99
3260;BME280;22469;48.150;14.004;2022-08-21T10:05:56;97975.88;;;23.15;77.79
3260;BME280;22469;48.150;14.004;2022-08-21T10:08:27;97973.00;;;23.18;77.96
3260;BME280;22469;48.150;14.004;2022-08-21T10:11:13;97968.19;;;23.24;77.89
3260;BME280;22469;48.150;14.004;2022-08-21T10:14:26;97966.31;;;23.26;78.15
3260;BME280;22469;48.150;14.004;2022-08-21T10:20:07;97965.66;;;23.33;78.47
3260;BME280;22469;48.150;14.004;2022-08-21T10:26:02;97963.25;;;23.51;78.11
3260;BME280;22469;48.150;14.004;2022-08-21T10:32:05;97963.75;;;23.45;75.14
3260;BME280;22469;48.150;14.004;2022-08-21T10:43:28;97952.22;;;23.88;75.42
3260;BME280;22469;48.150;14.004;2022-08-21T10:46:52;97951.03;;;24.11;75.36
3260;BME280;22469;48.150;14.004;2022-08-21T10:53:16;97946.22;;;23.36;73.99
3260;BME280;22469;48.150;14.004;2022-08-21T10:56:17;97938.03;;;23.50;73.73
3260;BME280;22469;48.150;14.004;2022-08-21T11:04:49;97937.75;;;23.84;70.87
3260;BME280;22469;48.150;14.004;2022-08-21T11:07:32;97935.56;;;23.49;70.67
3260;BME280;22469;48.150;14.004;2022-08-21T11:10:10;97939.69;;;23.92;71.90
3260;BME280;22469;48.150;14.004;2022-08-21T11:13:01;97928.13;;;23.94;68.98
3260;BME280;22469;48.150;14.004;2022-08-21T11:15:43;97924.97;;;24.29;69.66
3260;BME280;22469;48.150;14.004;2022-08-21T11:18:32;97934.00;;;24.56;69.30
3260;BME280;22469;48.150;14.004;2022-08-21T11:21:26;97927.00;;;24.06;67.79
3260;BME280;22469;48.150;14.004;2022-08-21T11:26:52;97920.88;;;24.66;67.45
3260;BME280;22469;48.150;14.004;2022-08-21T11:29:33;97906.22;;;24.82;67.07
3260;BME280;22469;48.150;14.004;2022-08-21T11:43:28;97887.59;;;25.23;63.31
3260;BME280;22469;48.150;14.004;2022-08-21T11:52:16;97901.81;;;25.58;61.56
3260;BME280;22469;48.150;14.004;2022-08-21T12:00:56;97889.00;;;26.00;57.54
3260;BME280;22469;48.150;14.004;2022-08-21T12:03:30;97885.56;;;25.99;57.18
3260;BME280;22469;48.150;14.004;2022-08-21T12:06:05;97887.50;;;26.15;58.97
3260;BME280;22469;48.150;14.004;2022-08-21T12:08:43;97882.28;;;25.88;58.62
3260;BME280;22469;48.150;14.004;2022-08-21T12:14:12;97889.75;;;26.10;58.74
3260;BME280;22469;48.150;14.004;2022-08-21T12:16:46;97894.88;;;26.30;58.66
3260;BME280;22469;48.150;14.004;2022-08-21T12:29:46;97913.16;;;25.86;56.91
3260;BME280;22469;48.150;14.004;2022-08-21T12:34:51;97908.50;;;25.15;58.05
3260;BME280;22469;48.150;14.004;2022-08-21T12:40:39;97911.75;;;24.50;59.58
3260;BME280;22469;48.150;14.004;2022-08-21T12:46:03;97910.50;;;24.64;60.52
3260;BME280;22469;48.150;14.004;2022-08-21T12:48:54;97913.81;;;24.56;60.56
3260;BME280;22469;48.150;14.004;2022-08-21T12:54:39;97904.16;;;24.47;62.25
3260;BME280;22469;48.150;14.004;2022-08-21T12:57:18;97902.22;;;24.40;61.99
3260;BME280;22469;48.150;14.004;2022-08-21T12:59:59;97890.06;;;24.29;62.51
3260;BME280;22469;48.150;14.004;2022-08-21T13:02:35;97882.06;;;24.11;62.85
3260;BME280;22469;48.150;14.004;2022-08-21T13:05:07;97889.25;;;24.09;63.19
3260;BME280;22469;48.150;14.004;2022-08-21T13:07:44;97894.88;;;23.95;63.59
3260;BME280;22469;48.150;14.004;2022-08-21T13:12:53;97930.38;;;23.68;65.54
3260;BME280;22469;48.150;14.004;2022-08-21T13:15:29;97923.03;;;23.52;66.94
3260;BME280;22469;48.150;14.004;2022-08-21T13:18:01;97906.75;;;23.49;68.32
3260;BME280;22469;48.150;14.004;2022-08-21T13:20:33;97904.75;;;23.41;68.85
3260;BME280;22469;48.150;14.004;2022-08-21T13:23:06;97927.19;;;23.34;70.00
3260;BME280;22469;48.150;14.004;2022-08-21T13:25:48;97939.16;;;23.27;69.50
3260;BME280;22469;48.150;14.004;2022-08-21T13:28:16;97945.31;;;23.16;70.48
3260;BME280;22469;48.150;14.004;2022-08-21T13:30:50;97941.88;;;23.15;69.55
3260;BME280;22469;48.150;14.004;2022-08-21T13:33:22;97942.53;;;23.17;71.10
3260;BME280;22469;48.150;14.004;2022-08-21T13:36:24;97951.69;;;23.23;71.74
3260;BME280;22469;48.150;14.004;2022-08-21T13:38:53;97945.41;;;23.14;71.20
3260;BME280;22469;48.150;14.004;2022-08-21T13:41:24;97953.25;;;23.14;71.57
3260;BME280;22469;48.150;14.004;2022-08-21T13:43:58;97952.19;;;23.17;71.50
3260;BME280;22469;48.150;14.004;2022-08-21T13:46:30;97948.03;;;23.14;72.32
3260;BME280;22469;48.150;14.004;2022-08-21T13:49:01;97938.53;;;23.13;72.79
3260;BME280;22469;48.150;14.004;2022-08-21T13:51:30;97940.47;;;23.11;73.63
3260;BME280;22469;48.150;14.004;2022-08-21T13:53:59;97936.31;;;23.09;73.21
3260;BME280;22469;48.150;14.004;2022-08-21T13:56:32;97939.19;;;23.06;73.50
3260;BME280;22469;48.150;14.004;2022-08-21T13:59:07;97943.03;;;23.02;73.45
3260;BME280;22469;48.150;14.004;2022-08-21T14:01:59;97930.50;;;23.05;73.63
3260;BME280;22469;48.150;14.004;2022-08-21T14:04:54;97925.78;;;22.99;73.82
3260;BME280;22469;48.150;14.004;2022-08-21T14:07:31;97916.41;;;22.97;73.92
3260;BME280;22469;48.150;14.004;2022-08-21T14:10:05;97908.44;;;22.98;74.47
3260;BME280;22469;48.150;14.004;2022-08-21T14:12:41;97909.28;;;22.99;74.79
3260;BME280;22469;48.150;14.004;2022-08-21T14:15:18;97904.88;;;22.99;75.23
3260;BME280;22469;48.150;14.004;2022-08-21T14:17:47;97895.63;;;22.95;75.74
3260;BME280;22469;48.150;14.004;2022-08-21T14:20:35;97896.88;;;23.01;75.78
3260;BME280;22469;48.150;14.004;2022-08-21T14:23:03;97898.09;;;22.97;75.00
3260;BME280;22469;48.150;14.004;2022-08-21T14:25:40;97891.47;;;22.92;75.37
3260;BME280;22469;48.150;14.004;2022-08-21T14:31:14;97887.38;;;22.79;75.92
3260;BME280;22469;48.150;14.004;2022-08-21T14:33:44;97883.94;;;22.78;75.31
3260;BME280;22469;48.150;14.004;2022-08-21T14:36:12;97887.38;;;22.79;75.49
3260;BME280;22469;48.150;14.004;2022-08-21T14:38:40;97882.00;;;22.80;75.85
3260;BME280;22469;48.150;14.004;2022-08-21T14:41:17;97882.44;;;22.85;75.13
3260;BME280;22469;48.150;14.004;2022-08-21T14:43:46;97875.69;;;22.83;75.08
3260;BME280;22469;48.150;14.004;2022-08-21T14:46:27;97878.19;;;22.84;74.93
3260;BME280;22469;48.150;14.004;2022-08-21T14:48:56;97882.00;;;22.80;75.51
3260;BME280;22469;48.150;14.004;2022-08-21T14:51:23;97869.31;;;22.76;74.48
3260;BME280;22469;48.150;14.004;2022-08-21T14:53:50;97871.69;;;22.79;74.98
3260;BME280;22469;48.150;14.004;2022-08-21T14:56:17;97876.03;;;22.68;75.13
3260;BME280;22469;48.150;14.004;2022-08-21T14:58:48;97865.72;;;22.67;75.38
3260;BME280;22469;48.150;14.004;2022-08-21T15:01:18;97865.31;;;22.71;75.78
3260;BME280;22469;48.150;14.004;2022-08-21T15:03:47;97870.97;;;22.77;75.59
3260;BME280;22469;48.150;14.004;2022-08-21T15:06:16;97873.91;;;22.83;75.46